createdAt,value
2019-05-22T00:03:46.788Z,10.28
2019-05-22T00:08:56.613Z,14.17
2019-05-22T00:14:07.066Z,15.75
2019-05-22T00:19:19.827Z,14.60
2019-05-22T00:24:33.261Z,15.15
2019-05-22T00:29:44.959Z,16.40
2019-05-22T00:34:56.732Z,17.70
2019-05-22T00:40:06.341Z,17.30
2019-05-22T00:45:19.276Z,16.27
2019-05-22T00:50:39.128Z,17.23
2019-05-22T00:55:48.026Z,15.83
2019-05-22T01:00:59.468Z,12.00
2019-05-22T01:06:11.119Z,15.35
2019-05-22T01:11:25.806Z,11.18
2019-05-22T01:16:35.879Z,10.95
2019-05-22T01:21:44.935Z,10.85
2019-05-22T01:26:59.033Z,9.30
2019-05-22T01:32:09.451Z,10.60
2019-05-22T01:37:19.515Z,7.87
2019-05-22T01:42:31.751Z,8.10
2019-05-22T01:47:41.893Z,11.12
2019-05-22T01:52:52.028Z,12.00
2019-05-22T01:58:01.768Z,9.67
2019-05-22T02:03:13.923Z,8.80
2019-05-22T02:08:27.913Z,9.05
2019-05-22T02:13:36.874Z,11.18
2019-05-22T02:18:47.657Z,11.10
2019-05-22T02:23:59.575Z,14.28
2019-05-22T02:29:09.972Z,11.38
2019-05-22T02:34:22.369Z,8.60
2019-05-22T02:44:48.580Z,8.65
2019-05-22T02:49:59.860Z,10.90
2019-05-22T03:00:27.398Z,8.55
2019-05-22T03:05:41.747Z,8.95
2019-05-22T03:10:52.911Z,8.45
2019-05-22T03:21:18.167Z,6.30
2019-05-22T03:26:36.289Z,7.65
2019-05-22T03:31:59.293Z,8.35
2019-05-22T03:37:11.879Z,10.05
2019-05-22T03:47:54.576Z,7.35
2019-05-22T03:53:07.926Z,6.72
2019-05-22T03:58:21.860Z,7.57
2019-05-22T04:03:38.557Z,7.55
2019-05-22T04:08:58.389Z,9.75
2019-05-22T04:14:22.175Z,8.70
2019-05-22T04:19:47.279Z,9.25
2019-05-22T04:24:44.130Z,10.23
2019-05-22T04:29:57.935Z,7.80
2019-05-22T04:35:08.828Z,6.60
2019-05-22T04:40:20.564Z,6.20
2019-05-22T04:45:35.259Z,6.17
2019-05-22T04:50:45.398Z,23.20
2019-05-22T04:55:58.678Z,8.83
2019-05-22T05:01:16.742Z,19.15
2019-05-22T05:06:30.976Z,43.52
2019-05-22T05:11:45.419Z,10.88
2019-05-22T05:16:56.585Z,12.10
2019-05-22T05:22:06.033Z,8.03
2019-05-22T05:27:24.329Z,9.28
2019-05-22T05:32:32.023Z,7.45
2019-05-22T05:37:46.930Z,9.50
2019-05-22T05:43:13.813Z,6.50
2019-05-22T05:48:27.503Z,5.70
2019-05-22T05:53:41.957Z,7.87
2019-05-22T05:58:54.996Z,9.75
2019-05-22T06:04:06.532Z,5.67
2019-05-22T06:09:16.700Z,8.58
2019-05-22T06:14:27.838Z,6.12
2019-05-22T06:19:38.630Z,5.67
2019-05-22T06:24:53.558Z,5.22
2019-05-22T06:30:04.249Z,6.20
2019-05-22T06:35:20.620Z,8.85
2019-05-22T06:46:10.172Z,7.80
2019-05-22T06:51:19.784Z,7.62
2019-05-22T06:56:30.140Z,7.20
2019-05-22T07:01:40.769Z,6.85
2019-05-22T07:06:52.594Z,6.45
2019-05-22T07:12:04.295Z,7.47
2019-05-22T07:17:19.341Z,6.62
2019-05-22T07:22:32.513Z,10.45
2019-05-22T07:27:47.378Z,7.95
2019-05-22T07:32:57.321Z,11.33
2019-05-22T07:38:07.599Z,11.12
2019-05-22T07:48:28.247Z,5.28
2019-05-22T07:53:40.379Z,7.25
2019-05-22T07:59:01.197Z,7.92
2019-05-22T08:04:03.384Z,5.33
2019-05-22T08:09:08.135Z,7.78
2019-05-22T08:14:13.702Z,10.50
2019-05-22T08:19:19.039Z,8.43
2019-05-22T08:24:28.709Z,7.37
2019-05-22T08:29:33.225Z,8.88
2019-05-22T08:34:39.436Z,9.38
2019-05-22T08:39:45.973Z,5.83
2019-05-22T08:44:51.332Z,6.33
2019-05-22T08:49:56.830Z,6.47
2019-05-22T08:55:02.634Z,8.60
2019-05-22T09:00:12.247Z,10.48
2019-05-22T09:05:16.262Z,7.78
2019-05-22T09:10:25.744Z,6.72
2019-05-22T09:15:30.247Z,7.42
2019-05-22T09:20:48.898Z,7.85
2019-05-22T09:25:45.404Z,10.13
2019-05-22T09:30:56.341Z,8.25
2019-05-22T09:36:04.196Z,11.38
2019-05-22T09:41:12.729Z,6.90
2019-05-22T09:46:21.058Z,7.60
2019-05-22T09:51:29.726Z,7.40
2019-05-22T09:56:38.012Z,12.75
2019-05-22T10:01:45.271Z,9.75
2019-05-22T10:06:53.791Z,7.72
2019-05-22T10:12:02.070Z,11.85
2019-05-22T10:17:14.043Z,12.93
2019-05-22T10:22:21.694Z,22.22
2019-05-22T10:27:30.740Z,18.15
2019-05-22T10:32:38.948Z,10.93
2019-05-22T10:37:54.520Z,7.25
2019-05-22T10:43:03.203Z,16.67
2019-05-22T10:48:19.530Z,13.83
2019-05-22T10:53:33.468Z,16.37
2019-05-22T10:58:39.379Z,25.60
2019-05-22T11:03:47.470Z,24.23
2019-05-22T11:08:55.205Z,15.65
2019-05-22T11:14:03.335Z,14.63
2019-05-22T11:19:25.665Z,11.03
2019-05-22T11:30:07.467Z,16.42
2019-05-22T11:35:23.785Z,12.30
2019-05-22T11:46:19.769Z,17.43
2019-05-22T11:51:44.979Z,14.30
2019-05-22T11:56:55.958Z,13.20
2019-05-22T12:02:09.131Z,18.80
2019-05-22T12:07:21.382Z,18.20
2019-05-22T12:12:35.401Z,11.48
2019-05-22T12:18:19.319Z,18.15
2019-05-22T12:23:17.249Z,13.88
2019-05-22T12:28:32.552Z,14.47
2019-05-22T12:33:49.141Z,18.37
2019-05-22T12:38:52.994Z,22.35
2019-05-22T12:44:10.412Z,20.75
2019-05-22T12:49:19.465Z,21.17
2019-05-22T12:55:02.832Z,17.67
2019-05-22T13:00:16.005Z,23.02
2019-05-22T13:05:23.624Z,27.65
2019-05-22T13:10:35.190Z,31.27
2019-05-22T13:15:43.513Z,15.45
2019-05-22T13:20:52.635Z,17.27
2019-05-22T13:26:00.090Z,17.70
2019-05-22T13:31:08.828Z,23.22
2019-05-22T13:36:17.466Z,24.87
2019-05-22T13:41:25.061Z,28.52
2019-05-22T13:46:33.578Z,25.55
2019-05-22T13:51:42.557Z,17.25
2019-05-22T13:56:50.905Z,15.70
2019-05-22T14:01:59.126Z,21.30
2019-05-22T14:07:07.982Z,24.25
2019-05-22T14:12:15.901Z,25.68
2019-05-22T14:17:24.136Z,27.22
2019-05-22T14:22:33.228Z,22.32
2019-05-22T14:27:41.889Z,23.02
2019-05-22T14:32:50.278Z,18.80
2019-05-22T14:37:58.719Z,23.52
2019-05-22T14:43:06.700Z,19.57
2019-05-22T14:48:14.388Z,15.95
2019-05-22T14:53:22.568Z,12.20
2019-05-22T14:58:30.165Z,13.40
2019-05-22T15:03:37.908Z,13.32
2019-05-22T15:08:45.669Z,13.58
2019-05-22T15:13:53.801Z,14.43
2019-05-22T15:19:02.668Z,15.25
2019-05-22T15:24:10.653Z,13.80
2019-05-22T15:29:18.895Z,14.75
2019-05-22T15:34:27.776Z,15.45
2019-05-22T15:39:35.396Z,11.12
2019-05-22T15:44:44.004Z,15.48
2019-05-22T15:49:58.265Z,12.18
2019-05-22T15:55:12.422Z,18.40
2019-05-22T16:00:28.240Z,13.00
2019-05-22T16:05:45.992Z,18.32
2019-05-22T16:10:48.963Z,18.05
2019-05-22T16:16:00.785Z,24.80
2019-05-22T16:21:12.222Z,20.85
2019-05-22T16:26:21.991Z,19.55
2019-05-22T16:31:30.709Z,17.73
2019-05-22T16:36:39.236Z,20.12
2019-05-22T16:41:49.132Z,24.40
2019-05-22T16:46:59.915Z,19.10
2019-05-22T16:52:10.604Z,22.50
2019-05-22T16:57:19.040Z,19.80
2019-05-22T17:02:29.236Z,17.75
2019-05-22T17:07:38.086Z,20.37
2019-05-22T17:12:47.754Z,18.87
2019-05-22T17:17:56.820Z,15.35
2019-05-22T17:23:04.984Z,21.33
2019-05-22T17:28:13.666Z,19.42
2019-05-22T17:33:22.782Z,22.20
2019-05-22T17:38:31.226Z,16.02
2019-05-22T17:43:40.781Z,17.02
2019-05-22T17:48:49.721Z,22.60
2019-05-22T17:53:57.488Z,23.00
2019-05-22T17:59:06.070Z,19.62
2019-05-22T18:04:14.033Z,24.52
2019-05-22T18:09:22.234Z,26.97
2019-05-22T18:14:31.270Z,23.77
2019-05-22T18:19:39.235Z,22.22
2019-05-22T18:24:48.352Z,22.90
2019-05-22T18:29:57.563Z,29.35
2019-05-22T18:35:06.150Z,23.95
2019-05-22T18:40:14.801Z,21.02
2019-05-22T18:45:25.087Z,26.85
2019-05-22T18:50:33.022Z,22.62
2019-05-22T18:55:42.135Z,21.77
2019-05-22T19:00:50.095Z,23.12
2019-05-22T19:05:57.840Z,22.07
2019-05-22T19:11:06.255Z,31.68
2019-05-22T19:16:15.016Z,20.60
2019-05-22T19:21:23.324Z,22.80
2019-05-22T19:26:31.151Z,22.87
2019-05-22T19:31:38.836Z,21.60
2019-05-22T19:36:46.569Z,28.70
2019-05-22T19:42:03.702Z,30.20
2019-05-22T19:47:04.798Z,32.97
2019-05-22T19:52:12.688Z,30.55
2019-05-22T19:57:21.722Z,32.95
2019-05-22T20:02:30.191Z,30.95
2019-05-22T20:07:38.205Z,26.10
2019-05-22T20:12:46.541Z,24.72
2019-05-22T20:17:54.115Z,22.48
2019-05-22T20:23:03.236Z,24.30
2019-05-22T20:28:11.870Z,23.10
2019-05-22T20:33:20.288Z,23.32
2019-05-22T20:38:28.419Z,27.32
2019-05-22T20:43:36.356Z,23.07
2019-05-22T20:48:45.583Z,24.92
2019-05-22T20:53:55.007Z,25.05
2019-05-22T20:59:02.683Z,20.20
2019-05-22T21:04:12.419Z,31.02
2019-05-22T21:09:20.963Z,24.95
2019-05-22T21:14:28.889Z,24.98
2019-05-22T21:19:37.527Z,17.55
2019-05-22T21:24:45.911Z,19.65
2019-05-22T21:29:54.342Z,24.18
2019-05-22T21:35:05.089Z,24.65
2019-05-22T21:40:13.175Z,42.73
2019-05-22T21:45:21.941Z,61.18
2019-05-22T21:50:30.525Z,49.53
2019-05-22T21:55:37.893Z,28.45
2019-05-22T22:00:47.136Z,30.90
2019-05-22T22:05:56.305Z,53.05
2019-05-22T22:11:05.738Z,38.48
2019-05-22T22:16:14.581Z,37.98
2019-05-22T22:21:22.419Z,56.60
2019-05-22T22:26:31.148Z,100.18
2019-05-22T22:31:39.827Z,79.25
2019-05-22T22:36:50.557Z,46.15
2019-05-22T22:41:59.502Z,33.28
2019-05-22T22:47:09.743Z,34.67
2019-05-22T22:52:19.497Z,35.67
2019-05-22T22:57:27.621Z,36.73
2019-05-22T23:02:38.592Z,36.00
2019-05-22T23:07:48.978Z,33.40
2019-05-22T23:12:58.044Z,38.65
2019-05-22T23:18:07.019Z,41.25
2019-05-22T23:23:15.171Z,59.45
2019-05-22T23:28:34.153Z,47.93
2019-05-22T23:33:35.409Z,27.58
2019-05-22T23:38:44.444Z,40.98
2019-05-22T23:43:53.789Z,35.73
2019-05-22T23:49:04.012Z,26.82
2019-05-22T23:54:15.295Z,29.63
2019-05-22T23:59:23.452Z,26.10
